Historyczne dane pomiarowe

Dodano dane terminowe – wersja testowa.

Dane z okresu 1951-2019

Wersja bazy: 1.34 [2019-03-16, lista zmian], aktualizacja planowana na 2019-04-15

Dane meteo z obszaru Polski uzyskane na podstawie danych udostępnionych przez Instytut Meteorologii i Gospodarki Wodnej – Państwowy Instytut Badawczy.

 

Wybierz Datę:    

       

TemperaturaWilgotnośćZachmurzenieWiatrCiśnienieWidzialnośćZjawiska
 Data    tng td wb rh cc ccl cl cm ch dir g1 g2 mslp ppp      
1999-06-24 00:00:00 7.1--- 6.3 6.795wxwx1wx--1023.7 998.4 0.0---wx
1999-06-24 01:00:00 6.5--- 5.5 6.093wxwx2wx--1023.8 998.4----wxw1
1999-06-24 02:00:00 5.8--- 4.7 5.393wxwxwx2wx--1023.9 998.4----wxw1
1999-06-24 03:00:00 4.4--- 3.5 4.094wxwxwx2wx--1024.3 998.7----wx
1999-06-24 04:00:00 4.8--- 3.5 4.291wxwx1wx--1024.4 998.8----wx
1999-06-24 05:00:00 8.0--- 7.4 7.796wxwxwxwx1wx--1024.3 999.0----wx
1999-06-24 06:00:00 11.2--- 9.2 10.187wxwxwxwx1wx--1024.1 999.1 0.0---wxw1
1999-06-24 07:00:00 13.6--- 10.0 11.679wxwxwxwxwx1wx--1024.0 999.2----wx
1999-06-24 08:00:00 14.5--- 9.0 11.570wxwxwxwxwx2wx--1024.0 999.3----wx
1999-06-24 09:00:00 15.6--- 7.6 11.359wxwxwxwxwx4wx--1023.8 999.2----wx
1999-06-24 10:00:00 15.6--- 8.0 11.561wxwxwxwxwx3wx--1023.8 999.2----wx
1999-06-24 11:00:00 16.7--- 9.2 12.561wxwxwxwxwx4wx--1023.3 998.8----wx
1999-06-24 12:00:00 16.0--- 10.2 12.768wxwxwxwxwx4wx--1023.4 998.8 0.0---wx
1999-06-24 13:00:00 16.4--- 7.0 11.454wxwxwxwxwx4wx--1023.3 998.8----wx
1999-06-24 14:00:00 17.0--- 7.1 11.752wxwxwxwxwx2wx--1023.0 998.5----wx
1999-06-24 15:00:00 16.4--- 8.6 12.160wxwxwxwxwx3wx--1022.8 998.3----wx
1999-06-24 16:00:00 16.5--- 7.6 11.756wxwxwxwxwx3wx--1022.6 998.1----wx
1999-06-24 17:00:00 14.6--- 13.3 13.892wxwxwxwx2wx--1023.0 998.3----wx
1999-06-24 18:00:00 14.2--- 10.3 12.077wxwxwxwx1wx--1023.0 998.3 0.0---wx
1999-06-24 19:00:00 13.4--- 10.9 12.085wxwxwxwx3wx--1023.3 998.5----wx
1999-06-24 20:00:00 10.8--- 9.3 10.091wxwxwx3wx--1023.8 998.8----wx
1999-06-24 21:00:00 9.6--- 8.5 9.093wxwx4wx--1023.9 998.8----wx
1999-06-24 22:00:00 8.2--- 7.4 7.895wxwx3wx--1024.0 998.7----wx
1999-06-24 23:00:00 7.5--- 6.3 6.992wxwx2wx--1024.0 998.7----wx

 

Źródłem pochodzenia danych jest Instytut Meteorologii i Gospodarki Wodnej – Państwowy Instytut Badawczy. Dane Instytutu Meteorologii i Gospodarki Wodnej – Państwowego Instytutu Badawczego zostały przetworzone.

Dane źródłowe można odnaleźć na stronie https://dane.imgw.pl